Terminal Aerodrome Forecast
Issued by NWS St Louis, MO

Home | Current Version | Previous Version | Text Only | Print | Product List | Glossary On
Versions: 1 2 3 4 5 6 7 8 9 10 11 12 13 14 15 16 17 18 19 20
401
FTUS43 KLSX 211906 AAA
TAFCOU
TAF AMD
KCOU 211906Z 2119/2218 25009KT P6SM SCT025 BKN035
      TEMPO 2119/2121 BKN025
     FM212100 28007KT P6SM SCT035
     FM221000 VRB04KT 6SM BR FEW100
     FM221400 05004KT P6SM FEW100=

USA.gov is the U.S. government's official web portal to all federal, state and local government web resources and services.